sensor_id;sensor_type;location;lat;lon;timestamp;temperature;humidity
15341;DHT22;7770;52.158;5.372;2024-02-26T00:02:21;5.70;99.90
15341;DHT22;7770;52.158;5.372;2024-02-26T00:05:07;5.70;99.90
15341;DHT22;7770;52.158;5.372;2024-02-26T00:07:54;5.70;99.90
15341;DHT22;7770;52.158;5.372;2024-02-26T00:10:40;5.60;99.90
15341;DHT22;7770;52.158;5.372;2024-02-26T00:13:26;5.60;99.90
15341;DHT22;7770;52.158;5.372;2024-02-26T00:16:12;5.60;99.90
15341;DHT22;7770;52.158;5.372;2024-02-26T00:18:58;5.60;99.90
15341;DHT22;7770;52.158;5.372;2024-02-26T00:21:44;5.50;99.90
15341;DHT22;7770;52.158;5.372;2024-02-26T00:24:30;5.50;99.90
15341;DHT22;7770;52.158;5.372;2024-02-26T00:27:16;5.50;99.90
15341;DHT22;7770;52.158;5.372;2024-02-26T00:30:02;5.50;99.90
15341;DHT22;7770;52.158;5.372;2024-02-26T00:32:48;5.50;99.90
15341;DHT22;7770;52.158;5.372;2024-02-26T00:35:34;5.50;99.90
15341;DHT22;7770;52.158;5.372;2024-02-26T00:38:20;5.50;99.90
15341;DHT22;7770;52.158;5.372;2024-02-26T00:41:06;5.40;99.90
15341;DHT22;7770;52.158;5.372;2024-02-26T00:43:52;5.40;99.90
15341;DHT22;7770;52.158;5.372;2024-02-26T00:46:38;5.40;99.90
15341;DHT22;7770;52.158;5.372;2024-02-26T00:49:24;5.30;99.90
15341;DHT22;7770;52.158;5.372;2024-02-26T00:52:10;5.40;99.90
15341;DHT22;7770;52.158;5.372;2024-02-26T00:54:56;5.30;99.90
15341;DHT22;7770;52.158;5.372;2024-02-26T00:57:42;5.30;99.90
15341;DHT22;7770;52.158;5.372;2024-02-26T01:00:28;5.30;99.90
15341;DHT22;7770;52.158;5.372;2024-02-26T01:03:15;5.20;99.90
15341;DHT22;7770;52.158;5.372;2024-02-26T01:06:01;5.20;99.90
15341;DHT22;7770;52.158;5.372;2024-02-26T01:08:47;5.20;99.90
15341;DHT22;7770;52.158;5.372;2024-02-26T01:11:33;5.10;99.90
15341;DHT22;7770;52.158;5.372;2024-02-26T01:14:19;5.10;99.90
15341;DHT22;7770;52.158;5.372;2024-02-26T01:17:05;5.10;99.90
15341;DHT22;7770;52.158;5.372;2024-02-26T01:19:51;5.10;99.90
15341;DHT22;7770;52.158;5.372;2024-02-26T01:22:37;5.10;99.90
15341;DHT22;7770;52.158;5.372;2024-02-26T01:25:24;5.10;99.90
15341;DHT22;7770;52.158;5.372;2024-02-26T01:28:10;5.10;99.90
15341;DHT22;7770;52.158;5.372;2024-02-26T01:30:55;5.10;99.90
15341;DHT22;7770;52.158;5.372;2024-02-26T01:33:42;5.10;99.90
15341;DHT22;7770;52.158;5.372;2024-02-26T01:36:28;5.10;99.90
15341;DHT22;7770;52.158;5.372;2024-02-26T01:39:14;5.10;99.90
15341;DHT22;7770;52.158;5.372;2024-02-26T01:42:00;5.10;99.90
15341;DHT22;7770;52.158;5.372;2024-02-26T01:44:46;5.10;99.90
15341;DHT22;7770;52.158;5.372;2024-02-26T01:47:32;5.10;99.90
15341;DHT22;7770;52.158;5.372;2024-02-26T01:50:19;5.10;99.90
15341;DHT22;7770;52.158;5.372;2024-02-26T01:53:08;5.10;99.90
15341;DHT22;7770;52.158;5.372;2024-02-26T01:55:54;5.20;99.90
15341;DHT22;7770;52.158;5.372;2024-02-26T01:58:41;5.20;99.90
15341;DHT22;7770;52.158;5.372;2024-02-26T02:01:29;5.20;99.90
15341;DHT22;7770;52.158;5.372;2024-02-26T02:04:17;5.20;99.90
15341;DHT22;7770;52.158;5.372;2024-02-26T02:07:04;5.20;99.90
15341;DHT22;7770;52.158;5.372;2024-02-26T02:09:51;5.20;99.90
15341;DHT22;7770;52.158;5.372;2024-02-26T02:12:37;5.20;99.90
15341;DHT22;7770;52.158;5.372;2024-02-26T02:15:25;5.20;99.90
15341;DHT22;7770;52.158;5.372;2024-02-26T02:18:11;5.20;99.90
15341;DHT22;7770;52.158;5.372;2024-02-26T02:21:00;5.20;99.90
15341;DHT22;7770;52.158;5.372;2024-02-26T02:23:46;5.20;99.90
15341;DHT22;7770;52.158;5.372;2024-02-26T02:26:34;5.20;99.90
15341;DHT22;7770;52.158;5.372;2024-02-26T02:29:20;5.20;99.90
15341;DHT22;7770;52.158;5.372;2024-02-26T02:32:07;5.30;99.90
15341;DHT22;7770;52.158;5.372;2024-02-26T02:34:53;5.30;99.90
15341;DHT22;7770;52.158;5.372;2024-02-26T02:37:39;5.30;99.90
15341;DHT22;7770;52.158;5.372;2024-02-26T02:40:26;5.30;99.90
15341;DHT22;7770;52.158;5.372;2024-02-26T02:43:12;5.30;99.90
15341;DHT22;7770;52.158;5.372;2024-02-26T02:45:58;5.30;99.90
15341;DHT22;7770;52.158;5.372;2024-02-26T02:48:44;5.20;99.90
15341;DHT22;7770;52.158;5.372;2024-02-26T02:51:30;5.20;99.90
15341;DHT22;7770;52.158;5.372;2024-02-26T02:54:16;5.20;99.90
15341;DHT22;7770;52.158;5.372;2024-02-26T02:57:02;5.20;99.90
15341;DHT22;7770;52.158;5.372;2024-02-26T02:59:49;5.20;99.90
15341;DHT22;7770;52.158;5.372;2024-02-26T03:02:35;5.20;99.90
15341;DHT22;7770;52.158;5.372;2024-02-26T03:05:23;5.20;99.90
15341;DHT22;7770;52.158;5.372;2024-02-26T03:08:09;5.20;99.90
15341;DHT22;7770;52.158;5.372;2024-02-26T03:10:58;5.20;99.90
15341;DHT22;7770;52.158;5.372;2024-02-26T03:13:44;5.20;99.90
15341;DHT22;7770;52.158;5.372;2024-02-26T03:16:30;5.20;99.90
15341;DHT22;7770;52.158;5.372;2024-02-26T03:19:16;5.20;99.90
15341;DHT22;7770;52.158;5.372;2024-02-26T03:22:02;5.20;99.90
15341;DHT22;7770;52.158;5.372;2024-02-26T03:24:48;5.20;99.90
15341;DHT22;7770;52.158;5.372;2024-02-26T03:27:34;5.20;99.90
15341;DHT22;7770;52.158;5.372;2024-02-26T03:30:20;5.20;99.90
15341;DHT22;7770;52.158;5.372;2024-02-26T03:33:06;5.20;99.90
15341;DHT22;7770;52.158;5.372;2024-02-26T03:35:52;5.10;99.90
15341;DHT22;7770;52.158;5.372;2024-02-26T03:38:38;5.10;99.90
15341;DHT22;7770;52.158;5.372;2024-02-26T03:41:24;5.10;99.90
15341;DHT22;7770;52.158;5.372;2024-02-26T03:44:10;5.10;99.90
15341;DHT22;7770;52.158;5.372;2024-02-26T03:46:56;5.10;99.90
15341;DHT22;7770;52.158;5.372;2024-02-26T03:49:42;5.10;99.90
15341;DHT22;7770;52.158;5.372;2024-02-26T03:52:28;5.10;99.90
15341;DHT22;7770;52.158;5.372;2024-02-26T03:55:14;5.20;99.90
15341;DHT22;7770;52.158;5.372;2024-02-26T03:58:00;5.10;99.90
15341;DHT22;7770;52.158;5.372;2024-02-26T04:00:47;5.10;99.90
15341;DHT22;7770;52.158;5.372;2024-02-26T04:03:35;5.20;99.90
15341;DHT22;7770;52.158;5.372;2024-02-26T04:06:21;5.20;99.90
15341;DHT22;7770;52.158;5.372;2024-02-26T04:09:08;5.10;99.90
15341;DHT22;7770;52.158;5.372;2024-02-26T04:11:56;5.10;99.90
15341;DHT22;7770;52.158;5.372;2024-02-26T04:14:42;5.20;99.90
15341;DHT22;7770;52.158;5.372;2024-02-26T04:17:28;5.20;99.90
15341;DHT22;7770;52.158;5.372;2024-02-26T04:20:15;5.20;99.90
15341;DHT22;7770;52.158;5.372;2024-02-26T04:23:03;5.10;99.90
15341;DHT22;7770;52.158;5.372;2024-02-26T04:25:49;5.20;99.90
15341;DHT22;7770;52.158;5.372;2024-02-26T04:28:36;5.20;99.90
15341;DHT22;7770;52.158;5.372;2024-02-26T04:31:22;5.20;99.90
15341;DHT22;7770;52.158;5.372;2024-02-26T04:34:08;5.20;99.90
15341;DHT22;7770;52.158;5.372;2024-02-26T04:36:54;5.10;99.90
15341;DHT22;7770;52.158;5.372;2024-02-26T04:39:40;5.20;99.90
15341;DHT22;7770;52.158;5.372;2024-02-26T04:42:27;5.20;99.90
15341;DHT22;7770;52.158;5.372;2024-02-26T04:45:13;5.20;99.90
15341;DHT22;7770;52.158;5.372;2024-02-26T04:47:59;5.20;99.90
15341;DHT22;7770;52.158;5.372;2024-02-26T04:50:45;5.30;99.90
15341;DHT22;7770;52.158;5.372;2024-02-26T04:53:31;5.30;99.90
15341;DHT22;7770;52.158;5.372;2024-02-26T04:56:17;5.30;99.90
15341;DHT22;7770;52.158;5.372;2024-02-26T04:59:03;5.30;99.90
15341;DHT22;7770;52.158;5.372;2024-02-26T05:01:49;5.30;99.90
15341;DHT22;7770;52.158;5.372;2024-02-26T05:04:38;5.30;99.90
15341;DHT22;7770;52.158;5.372;2024-02-26T05:07:24;5.30;99.90
15341;DHT22;7770;52.158;5.372;2024-02-26T05:10:10;5.30;99.90
15341;DHT22;7770;52.158;5.372;2024-02-26T05:12:56;5.30;99.90
15341;DHT22;7770;52.158;5.372;2024-02-26T05:15:43;5.30;99.90
15341;DHT22;7770;52.158;5.372;2024-02-26T05:18:30;5.30;99.90
15341;DHT22;7770;52.158;5.372;2024-02-26T05:21:16;5.30;99.90
15341;DHT22;7770;52.158;5.372;2024-02-26T05:24:02;5.30;99.90
15341;DHT22;7770;52.158;5.372;2024-02-26T05:26:49;5.30;99.90
15341;DHT22;7770;52.158;5.372;2024-02-26T05:29:35;5.20;99.90
15341;DHT22;7770;52.158;5.372;2024-02-26T05:32:21;5.30;99.90
15341;DHT22;7770;52.158;5.372;2024-02-26T05:35:07;5.20;99.90
15341;DHT22;7770;52.158;5.372;2024-02-26T05:37:53;5.30;99.90
15341;DHT22;7770;52.158;5.372;2024-02-26T05:40:39;5.20;99.90
15341;DHT22;7770;52.158;5.372;2024-02-26T05:43:26;5.20;99.90
15341;DHT22;7770;52.158;5.372;2024-02-26T05:46:12;5.20;99.90
15341;DHT22;7770;52.158;5.372;2024-02-26T05:48:58;5.10;99.90
15341;DHT22;7770;52.158;5.372;2024-02-26T05:51:44;5.20;99.90
15341;DHT22;7770;52.158;5.372;2024-02-26T05:54:30;5.20;99.90
15341;DHT22;7770;52.158;5.372;2024-02-26T05:57:16;5.10;99.90
15341;DHT22;7770;52.158;5.372;2024-02-26T06:00:04;5.20;99.90
15341;DHT22;7770;52.158;5.372;2024-02-26T06:02:51;5.10;99.90
15341;DHT22;7770;52.158;5.372;2024-02-26T06:05:37;5.20;99.90
15341;DHT22;7770;52.158;5.372;2024-02-26T06:08:23;5.20;99.90
15341;DHT22;7770;52.158;5.372;2024-02-26T06:11:09;5.20;99.90
15341;DHT22;7770;52.158;5.372;2024-02-26T06:13:55;5.20;99.90
15341;DHT22;7770;52.158;5.372;2024-02-26T06:16:41;5.20;99.90
15341;DHT22;7770;52.158;5.372;2024-02-26T06:19:27;5.20;99.90
15341;DHT22;7770;52.158;5.372;2024-02-26T06:22:13;5.30;99.90
15341;DHT22;7770;52.158;5.372;2024-02-26T06:24:59;5.20;99.90
15341;DHT22;7770;52.158;5.372;2024-02-26T06:27:45;5.20;99.90
15341;DHT22;7770;52.158;5.372;2024-02-26T06:30:31;5.30;99.90
15341;DHT22;7770;52.158;5.372;2024-02-26T06:33:17;5.30;99.90
15341;DHT22;7770;52.158;5.372;2024-02-26T06:36:04;5.30;99.90
15341;DHT22;7770;52.158;5.372;2024-02-26T06:38:50;5.30;99.90
15341;DHT22;7770;52.158;5.372;2024-02-26T06:41:37;5.30;99.90
15341;DHT22;7770;52.158;5.372;2024-02-26T06:44:24;5.30;99.90
15341;DHT22;7770;52.158;5.372;2024-02-26T06:47:11;5.40;99.90
15341;DHT22;7770;52.158;5.372;2024-02-26T06:49:58;5.40;99.90
15341;DHT22;7770;52.158;5.372;2024-02-26T06:52:44;5.40;99.90
15341;DHT22;7770;52.158;5.372;2024-02-26T06:55:31;5.40;99.90
15341;DHT22;7770;52.158;5.372;2024-02-26T06:58:17;5.40;99.90
15341;DHT22;7770;52.158;5.372;2024-02-26T07:01:03;5.30;99.90
15341;DHT22;7770;52.158;5.372;2024-02-26T07:03:49;5.30;99.90
15341;DHT22;7770;52.158;5.372;2024-02-26T07:06:35;5.30;99.90
15341;DHT22;7770;52.158;5.372;2024-02-26T07:09:22;5.30;99.90
15341;DHT22;7770;52.158;5.372;2024-02-26T07:12:08;5.30;99.90
15341;DHT22;7770;52.158;5.372;2024-02-26T07:14:54;5.20;99.90
15341;DHT22;7770;52.158;5.372;2024-02-26T07:17:40;5.20;99.90
15341;DHT22;7770;52.158;5.372;2024-02-26T07:20:32;5.20;99.90
15341;DHT22;7770;52.158;5.372;2024-02-26T07:23:18;5.20;99.90
15341;DHT22;7770;52.158;5.372;2024-02-26T07:26:04;5.20;99.90
15341;DHT22;7770;52.158;5.372;2024-02-26T07:28:51;5.20;99.90
15341;DHT22;7770;52.158;5.372;2024-02-26T07:31:37;5.10;99.90
15341;DHT22;7770;52.158;5.372;2024-02-26T07:34:23;5.10;99.90
15341;DHT22;7770;52.158;5.372;2024-02-26T07:37:13;5.10;99.90
15341;DHT22;7770;52.158;5.372;2024-02-26T07:39:59;5.20;99.90
15341;DHT22;7770;52.158;5.372;2024-02-26T07:42:45;5.20;99.90
15341;DHT22;7770;52.158;5.372;2024-02-26T07:45:31;5.20;99.90
15341;DHT22;7770;52.158;5.372;2024-02-26T07:48:17;5.20;99.90
15341;DHT22;7770;52.158;5.372;2024-02-26T07:51:03;5.20;99.90
15341;DHT22;7770;52.158;5.372;2024-02-26T07:53:50;5.30;99.90
15341;DHT22;7770;52.158;5.372;2024-02-26T07:56:38;5.30;99.90
15341;DHT22;7770;52.158;5.372;2024-02-26T07:59:24;5.30;99.90
15341;DHT22;7770;52.158;5.372;2024-02-26T08:02:10;5.30;99.90
15341;DHT22;7770;52.158;5.372;2024-02-26T08:04:56;5.30;99.90
15341;DHT22;7770;52.158;5.372;2024-02-26T08:07:42;5.30;99.90
15341;DHT22;7770;52.158;5.372;2024-02-26T08:10:28;5.30;99.90
15341;DHT22;7770;52.158;5.372;2024-02-26T08:13:14;5.40;99.90
15341;DHT22;7770;52.158;5.372;2024-02-26T08:16:00;5.40;99.90
15341;DHT22;7770;52.158;5.372;2024-02-26T08:18:47;5.30;99.90
15341;DHT22;7770;52.158;5.372;2024-02-26T08:21:32;5.40;99.90
15341;DHT22;7770;52.158;5.372;2024-02-26T08:24:19;5.30;99.90
15341;DHT22;7770;52.158;5.372;2024-02-26T08:27:05;5.30;99.90
15341;DHT22;7770;52.158;5.372;2024-02-26T08:29:51;5.30;99.90
15341;DHT22;7770;52.158;5.372;2024-02-26T08:32:37;5.40;99.90
15341;DHT22;7770;52.158;5.372;2024-02-26T08:35:23;5.40;99.90
15341;DHT22;7770;52.158;5.372;2024-02-26T08:38:09;5.50;99.90
15341;DHT22;7770;52.158;5.372;2024-02-26T08:40:55;5.50;99.90
15341;DHT22;7770;52.158;5.372;2024-02-26T08:43:41;5.40;99.90
15341;DHT22;7770;52.158;5.372;2024-02-26T08:46:27;5.40;99.90
15341;DHT22;7770;52.158;5.372;2024-02-26T08:49:13;5.40;99.90
15341;DHT22;7770;52.158;5.372;2024-02-26T08:51:59;5.40;99.90
15341;DHT22;7770;52.158;5.372;2024-02-26T08:54:45;5.40;99.90
15341;DHT22;7770;52.158;5.372;2024-02-26T08:57:31;5.40;99.90
15341;DHT22;7770;52.158;5.372;2024-02-26T09:00:19;5.40;99.90
15341;DHT22;7770;52.158;5.372;2024-02-26T09:03:06;5.50;99.90
15341;DHT22;7770;52.158;5.372;2024-02-26T09:05:52;5.50;99.90
15341;DHT22;7770;52.158;5.372;2024-02-26T09:08:38;5.60;99.90
15341;DHT22;7770;52.158;5.372;2024-02-26T09:11:24;5.50;99.90
15341;DHT22;7770;52.158;5.372;2024-02-26T09:14:10;5.50;99.90
15341;DHT22;7770;52.158;5.372;2024-02-26T09:16:56;5.40;99.90
15341;DHT22;7770;52.158;5.372;2024-02-26T09:19:42;5.40;99.90
15341;DHT22;7770;52.158;5.372;2024-02-26T09:22:29;5.40;99.90
15341;DHT22;7770;52.158;5.372;2024-02-26T09:25:15;5.40;99.90
15341;DHT22;7770;52.158;5.372;2024-02-26T09:28:02;5.40;99.90
15341;DHT22;7770;52.158;5.372;2024-02-26T09:30:49;5.50;99.90
15341;DHT22;7770;52.158;5.372;2024-02-26T09:33:36;5.50;99.90
15341;DHT22;7770;52.158;5.372;2024-02-26T09:36:22;5.50;99.90
15341;DHT22;7770;52.158;5.372;2024-02-26T09:39:08;5.40;99.90
15341;DHT22;7770;52.158;5.372;2024-02-26T09:41:57;5.40;99.90
15341;DHT22;7770;52.158;5.372;2024-02-26T09:44:45;5.50;99.90
15341;DHT22;7770;52.158;5.372;2024-02-26T09:47:36;5.50;99.90
15341;DHT22;7770;52.158;5.372;2024-02-26T09:50:22;5.40;99.90
15341;DHT22;7770;52.158;5.372;2024-02-26T09:53:08;5.50;99.90
15341;DHT22;7770;52.158;5.372;2024-02-26T09:55:56;5.40;99.90
15341;DHT22;7770;52.158;5.372;2024-02-26T09:58:42;5.40;99.90
15341;DHT22;7770;52.158;5.372;2024-02-26T10:01:28;5.50;99.90
15341;DHT22;7770;52.158;5.372;2024-02-26T10:04:20;5.40;99.90
15341;DHT22;7770;52.158;5.372;2024-02-26T10:07:10;5.40;99.90
15341;DHT22;7770;52.158;5.372;2024-02-26T10:09:58;5.50;99.90
15341;DHT22;7770;52.158;5.372;2024-02-26T10:12:44;5.50;99.90
15341;DHT22;7770;52.158;5.372;2024-02-26T10:15:30;5.50;99.90
15341;DHT22;7770;52.158;5.372;2024-02-26T10:18:16;5.50;99.90
15341;DHT22;7770;52.158;5.372;2024-02-26T10:21:03;5.60;99.90
15341;DHT22;7770;52.158;5.372;2024-02-26T10:23:49;5.60;99.90
15341;DHT22;7770;52.158;5.372;2024-02-26T10:26:46;5.60;99.90
15341;DHT22;7770;52.158;5.372;2024-02-26T10:29:32;5.70;99.90
15341;DHT22;7770;52.158;5.372;2024-02-26T10:32:18;5.60;99.90
15341;DHT22;7770;52.158;5.372;2024-02-26T10:35:08;5.70;99.90
15341;DHT22;7770;52.158;5.372;2024-02-26T10:37:54;5.70;99.90
15341;DHT22;7770;52.158;5.372;2024-02-26T10:40:40;5.70;99.90
15341;DHT22;7770;52.158;5.372;2024-02-26T10:43:26;5.70;99.90
15341;DHT22;7770;52.158;5.372;2024-02-26T10:46:12;5.80;99.90
15341;DHT22;7770;52.158;5.372;2024-02-26T10:48:58;5.70;99.90
15341;DHT22;7770;52.158;5.372;2024-02-26T10:51:49;5.70;99.90
15341;DHT22;7770;52.158;5.372;2024-02-26T10:54:41;5.70;99.90
15341;DHT22;7770;52.158;5.372;2024-02-26T10:57:52;5.80;99.90
15341;DHT22;7770;52.158;5.372;2024-02-26T11:00:38;5.80;99.90
15341;DHT22;7770;52.158;5.372;2024-02-26T11:03:25;5.90;99.90
15341;DHT22;7770;52.158;5.372;2024-02-26T11:06:12;5.90;99.90
15341;DHT22;7770;52.158;5.372;2024-02-26T11:09:01;5.90;99.90
15341;DHT22;7770;52.158;5.372;2024-02-26T11:11:49;6.00;99.90
15341;DHT22;7770;52.158;5.372;2024-02-26T11:14:41;5.90;99.90
15341;DHT22;7770;52.158;5.372;2024-02-26T11:17:30;5.90;99.90
15341;DHT22;7770;52.158;5.372;2024-02-26T11:20:17;6.00;99.90
15341;DHT22;7770;52.158;5.372;2024-02-26T11:23:06;6.00;99.90
15341;DHT22;7770;52.158;5.372;2024-02-26T11:25:55;6.00;99.90
15341;DHT22;7770;52.158;5.372;2024-02-26T11:28:44;5.90;99.90
15341;DHT22;7770;52.158;5.372;2024-02-26T11:31:30;6.00;99.90
15341;DHT22;7770;52.158;5.372;2024-02-26T11:34:16;6.00;99.90
15341;DHT22;7770;52.158;5.372;2024-02-26T11:37:13;6.00;99.90
15341;DHT22;7770;52.158;5.372;2024-02-26T11:40:00;6.00;99.90
15341;DHT22;7770;52.158;5.372;2024-02-26T11:42:47;6.00;99.90
15341;DHT22;7770;52.158;5.372;2024-02-26T11:48:32;6.00;99.90
15341;DHT22;7770;52.158;5.372;2024-02-26T11:51:25;6.00;99.90
15341;DHT22;7770;52.158;5.372;2024-02-26T11:54:51;6.10;99.90
15341;DHT22;7770;52.158;5.372;2024-02-26T11:57:39;6.00;99.90
15341;DHT22;7770;52.158;5.372;2024-02-26T12:00:25;6.00;99.90
15341;DHT22;7770;52.158;5.372;2024-02-26T12:03:12;6.10;99.90
15341;DHT22;7770;52.158;5.372;2024-02-26T12:06:00;6.10;99.90
15341;DHT22;7770;52.158;5.372;2024-02-26T12:08:46;6.10;99.90
15341;DHT22;7770;52.158;5.372;2024-02-26T12:11:32;6.10;99.90
15341;DHT22;7770;52.158;5.372;2024-02-26T12:14:18;6.10;99.90
15341;DHT22;7770;52.158;5.372;2024-02-26T12:17:04;6.20;99.90
15341;DHT22;7770;52.158;5.372;2024-02-26T12:19:53;6.20;99.90
15341;DHT22;7770;52.158;5.372;2024-02-26T12:22:45;6.10;99.90
15341;DHT22;7770;52.158;5.372;2024-02-26T12:25:35;6.30;99.90
15341;DHT22;7770;52.158;5.372;2024-02-26T12:28:21;6.20;99.90
15341;DHT22;7770;52.158;5.372;2024-02-26T12:31:07;6.30;99.90
15341;DHT22;7770;52.158;5.372;2024-02-26T12:33:54;6.30;99.90
15341;DHT22;7770;52.158;5.372;2024-02-26T12:36:41;6.30;99.90
15341;DHT22;7770;52.158;5.372;2024-02-26T12:39:27;6.30;99.90
15341;DHT22;7770;52.158;5.372;2024-02-26T12:42:14;6.40;99.90
15341;DHT22;7770;52.158;5.372;2024-02-26T12:45:00;6.30;99.90
15341;DHT22;7770;52.158;5.372;2024-02-26T12:47:46;6.30;99.90
15341;DHT22;7770;52.158;5.372;2024-02-26T12:50:33;6.30;99.90
15341;DHT22;7770;52.158;5.372;2024-02-26T12:53:20;6.30;99.90
15341;DHT22;7770;52.158;5.372;2024-02-26T12:56:07;6.50;99.90
15341;DHT22;7770;52.158;5.372;2024-02-26T12:58:55;6.50;99.90
15341;DHT22;7770;52.158;5.372;2024-02-26T13:01:41;6.50;99.90
15341;DHT22;7770;52.158;5.372;2024-02-26T13:04:29;6.60;99.90
15341;DHT22;7770;52.158;5.372;2024-02-26T13:07:15;6.50;99.90
15341;DHT22;7770;52.158;5.372;2024-02-26T13:10:01;6.60;99.90
15341;DHT22;7770;52.158;5.372;2024-02-26T13:12:49;6.60;99.90
15341;DHT22;7770;52.158;5.372;2024-02-26T13:15:38;6.60;99.90
15341;DHT22;7770;52.158;5.372;2024-02-26T13:18:27;6.60;99.90
15341;DHT22;7770;52.158;5.372;2024-02-26T13:21:18;6.60;99.90
15341;DHT22;7770;52.158;5.372;2024-02-26T13:24:06;6.60;99.90
15341;DHT22;7770;52.158;5.372;2024-02-26T13:26:55;6.70;99.90
15341;DHT22;7770;52.158;5.372;2024-02-26T13:29:41;6.60;99.90
15341;DHT22;7770;52.158;5.372;2024-02-26T13:32:27;6.60;99.90
15341;DHT22;7770;52.158;5.372;2024-02-26T13:35:16;6.60;99.90
15341;DHT22;7770;52.158;5.372;2024-02-26T13:38:04;6.50;99.90
15341;DHT22;7770;52.158;5.372;2024-02-26T13:40:50;6.60;99.90
15341;DHT22;7770;52.158;5.372;2024-02-26T13:43:37;6.60;99.90
15341;DHT22;7770;52.158;5.372;2024-02-26T13:46:23;6.70;99.90
15341;DHT22;7770;52.158;5.372;2024-02-26T13:49:09;6.70;99.90
15341;DHT22;7770;52.158;5.372;2024-02-26T13:51:56;6.80;99.90
15341;DHT22;7770;52.158;5.372;2024-02-26T13:54:42;6.80;99.90
15341;DHT22;7770;52.158;5.372;2024-02-26T13:57:28;6.80;99.90
15341;DHT22;7770;52.158;5.372;2024-02-26T14:00:15;6.80;99.90
15341;DHT22;7770;52.158;5.372;2024-02-26T14:03:01;6.80;99.90
15341;DHT22;7770;52.158;5.372;2024-02-26T14:05:48;6.90;99.90
15341;DHT22;7770;52.158;5.372;2024-02-26T14:08:34;6.90;99.90
15341;DHT22;7770;52.158;5.372;2024-02-26T14:11:20;7.00;99.90
15341;DHT22;7770;52.158;5.372;2024-02-26T14:14:06;6.90;99.90
15341;DHT22;7770;52.158;5.372;2024-02-26T14:16:52;6.90;99.90
15341;DHT22;7770;52.158;5.372;2024-02-26T14:19:38;6.90;99.90
15341;DHT22;7770;52.158;5.372;2024-02-26T14:22:26;7.00;99.90
15341;DHT22;7770;52.158;5.372;2024-02-26T14:25:12;6.90;99.90
15341;DHT22;7770;52.158;5.372;2024-02-26T14:27:58;6.90;99.90
15341;DHT22;7770;52.158;5.372;2024-02-26T14:30:44;6.90;99.90
15341;DHT22;7770;52.158;5.372;2024-02-26T14:33:30;7.00;99.90
15341;DHT22;7770;52.158;5.372;2024-02-26T14:36:16;7.00;99.90
15341;DHT22;7770;52.158;5.372;2024-02-26T14:39:02;7.00;99.90
15341;DHT22;7770;52.158;5.372;2024-02-26T14:41:48;7.00;99.90
15341;DHT22;7770;52.158;5.372;2024-02-26T14:44:34;7.00;99.90
15341;DHT22;7770;52.158;5.372;2024-02-26T14:47:20;7.00;99.90
15341;DHT22;7770;52.158;5.372;2024-02-26T14:50:07;7.10;99.90
15341;DHT22;7770;52.158;5.372;2024-02-26T14:52:53;7.10;99.90
15341;DHT22;7770;52.158;5.372;2024-02-26T14:55:39;7.10;99.90
15341;DHT22;7770;52.158;5.372;2024-02-26T14:58:25;7.10;99.90
15341;DHT22;7770;52.158;5.372;2024-02-26T15:01:11;7.10;99.90
15341;DHT22;7770;52.158;5.372;2024-02-26T15:03:57;7.10;99.90
15341;DHT22;7770;52.158;5.372;2024-02-26T15:06:43;7.10;99.90
15341;DHT22;7770;52.158;5.372;2024-02-26T15:09:29;7.10;99.90
15341;DHT22;7770;52.158;5.372;2024-02-26T15:12:15;7.00;99.90
15341;DHT22;7770;52.158;5.372;2024-02-26T15:15:03;6.90;99.90
15341;DHT22;7770;52.158;5.372;2024-02-26T15:17:50;7.00;99.90
15341;DHT22;7770;52.158;5.372;2024-02-26T15:20:37;7.00;99.90
15341;DHT22;7770;52.158;5.372;2024-02-26T15:23:26;7.00;99.90
15341;DHT22;7770;52.158;5.372;2024-02-26T15:26:13;7.00;99.90
15341;DHT22;7770;52.158;5.372;2024-02-26T15:28:59;7.00;99.90
15341;DHT22;7770;52.158;5.372;2024-02-26T15:31:45;7.00;99.90
15341;DHT22;7770;52.158;5.372;2024-02-26T15:34:31;7.00;99.90
15341;DHT22;7770;52.158;5.372;2024-02-26T15:37:17;7.00;99.90
15341;DHT22;7770;52.158;5.372;2024-02-26T15:40:05;7.00;99.90
15341;DHT22;7770;52.158;5.372;2024-02-26T15:42:52;7.10;99.90
15341;DHT22;7770;52.158;5.372;2024-02-26T15:45:38;7.00;99.90
15341;DHT22;7770;52.158;5.372;2024-02-26T15:48:24;7.00;99.90
15341;DHT22;7770;52.158;5.372;2024-02-26T15:51:23;7.00;99.90
15341;DHT22;7770;52.158;5.372;2024-02-26T15:54:12;6.90;99.90
15341;DHT22;7770;52.158;5.372;2024-02-26T15:56:58;6.90;99.90
15341;DHT22;7770;52.158;5.372;2024-02-26T15:59:44;6.90;99.90
15341;DHT22;7770;52.158;5.372;2024-02-26T16:02:30;6.80;99.90
15341;DHT22;7770;52.158;5.372;2024-02-26T16:05:16;6.70;99.90
15341;DHT22;7770;52.158;5.372;2024-02-26T16:08:12;6.70;99.90
15341;DHT22;7770;52.158;5.372;2024-02-26T16:11:06;6.60;99.90
15341;DHT22;7770;52.158;5.372;2024-02-26T16:17:21;6.60;99.90
15341;DHT22;7770;52.158;5.372;2024-02-26T16:20:10;6.60;99.90
15341;DHT22;7770;52.158;5.372;2024-02-26T16:22:58;6.50;99.90
15341;DHT22;7770;52.158;5.372;2024-02-26T16:25:47;6.40;99.90
15341;DHT22;7770;52.158;5.372;2024-02-26T16:28:33;6.40;99.90
15341;DHT22;7770;52.158;5.372;2024-02-26T16:31:19;6.40;99.90
15341;DHT22;7770;52.158;5.372;2024-02-26T16:34:05;6.30;99.90
15341;DHT22;7770;52.158;5.372;2024-02-26T16:36:51;6.30;99.90
15341;DHT22;7770;52.158;5.372;2024-02-26T16:39:38;6.20;99.90
15341;DHT22;7770;52.158;5.372;2024-02-26T16:42:25;6.10;99.90
15341;DHT22;7770;52.158;5.372;2024-02-26T16:45:12;6.00;99.90
15341;DHT22;7770;52.158;5.372;2024-02-26T16:47:58;6.00;99.90
15341;DHT22;7770;52.158;5.372;2024-02-26T16:50:44;5.90;99.90
15341;DHT22;7770;52.158;5.372;2024-02-26T16:53:30;5.90;99.90
15341;DHT22;7770;52.158;5.372;2024-02-26T16:56:16;5.80;99.90
15341;DHT22;7770;52.158;5.372;2024-02-26T16:59:02;5.80;99.90
15341;DHT22;7770;52.158;5.372;2024-02-26T17:01:49;5.80;99.90
15341;DHT22;7770;52.158;5.372;2024-02-26T17:04:35;5.70;99.90
15341;DHT22;7770;52.158;5.372;2024-02-26T17:07:21;5.70;99.90
15341;DHT22;7770;52.158;5.372;2024-02-26T17:10:08;5.70;99.90
15341;DHT22;7770;52.158;5.372;2024-02-26T17:12:54;5.70;99.90
15341;DHT22;7770;52.158;5.372;2024-02-26T17:15:40;5.60;99.90
15341;DHT22;7770;52.158;5.372;2024-02-26T17:18:26;5.60;99.90
15341;DHT22;7770;52.158;5.372;2024-02-26T17:21:19;5.40;99.90
15341;DHT22;7770;52.158;5.372;2024-02-26T17:24:06;5.40;99.90
15341;DHT22;7770;52.158;5.372;2024-02-26T17:26:52;5.40;99.90
15341;DHT22;7770;52.158;5.372;2024-02-26T17:29:38;5.30;99.90
15341;DHT22;7770;52.158;5.372;2024-02-26T17:32:24;5.30;99.90
15341;DHT22;7770;52.158;5.372;2024-02-26T17:35:10;5.30;99.90
15341;DHT22;7770;52.158;5.372;2024-02-26T17:38:00;5.30;99.90
15341;DHT22;7770;52.158;5.372;2024-02-26T17:40:49;5.20;99.90
15341;DHT22;7770;52.158;5.372;2024-02-26T17:43:35;5.30;99.90
15341;DHT22;7770;52.158;5.372;2024-02-26T17:46:21;5.20;99.90
15341;DHT22;7770;52.158;5.372;2024-02-26T17:49:07;5.20;99.90
15341;DHT22;7770;52.158;5.372;2024-02-26T17:51:53;5.10;99.90
15341;DHT22;7770;52.158;5.372;2024-02-26T17:54:39;5.10;99.90
15341;DHT22;7770;52.158;5.372;2024-02-26T17:57:25;5.00;99.90
15341;DHT22;7770;52.158;5.372;2024-02-26T18:00:12;5.00;99.90
15341;DHT22;7770;52.158;5.372;2024-02-26T18:02:58;5.00;99.90
15341;DHT22;7770;52.158;5.372;2024-02-26T18:05:44;4.90;99.90
15341;DHT22;7770;52.158;5.372;2024-02-26T18:08:30;4.90;99.90
15341;DHT22;7770;52.158;5.372;2024-02-26T18:11:16;4.80;99.90
15341;DHT22;7770;52.158;5.372;2024-02-26T18:14:02;4.80;99.90
15341;DHT22;7770;52.158;5.372;2024-02-26T18:16:48;4.90;99.90